createdAt,value
2017-11-10T00:03:40.599Z,7.60
2017-11-10T00:08:45.013Z,7.60
2017-11-10T00:13:47.929Z,7.60
2017-11-10T00:18:50.888Z,7.60
2017-11-10T00:23:57.031Z,7.60
2017-11-10T00:28:59.958Z,7.60
2017-11-10T00:39:10.215Z,7.60
2017-11-10T00:49:23.077Z,7.60
2017-11-10T00:54:26.417Z,7.60
2017-11-10T00:59:31.459Z,7.60
2017-11-10T01:04:35.756Z,7.60
2017-11-10T01:09:38.785Z,7.60
2017-11-10T01:14:42.041Z,7.50
2017-11-10T01:19:46.302Z,7.50
2017-11-10T01:29:56.138Z,7.50
2017-11-10T01:34:59.605Z,7.50
2017-11-10T01:40:03.996Z,7.50
2017-11-10T01:45:08.301Z,7.50
2017-11-10T01:50:12.526Z,7.50
2017-11-10T01:55:15.349Z,7.50
2017-11-10T02:00:19.896Z,7.50
2017-11-10T02:05:23.244Z,7.50
2017-11-10T02:10:29.293Z,7.50
2017-11-10T02:15:32.703Z,7.50
2017-11-10T02:20:37.810Z,7.40
2017-11-10T02:25:41.261Z,7.40
2017-11-10T02:30:44.653Z,7.40
2017-11-10T02:35:47.590Z,7.40
2017-11-10T02:40:50.388Z,7.40
2017-11-10T02:45:54.758Z,7.40
2017-11-10T02:50:59.106Z,7.40
2017-11-10T02:56:04.234Z,7.40
2017-11-10T03:01:08.516Z,7.40
2017-11-10T03:06:11.333Z,7.40
2017-11-10T03:11:14.380Z,7.30
2017-11-10T03:21:24.714Z,7.40
2017-11-10T03:26:28.212Z,7.40
2017-11-10T03:31:32.355Z,7.30
2017-11-10T03:36:39.481Z,7.30
2017-11-10T03:41:45.589Z,7.30
2017-11-10T03:51:56.398Z,7.30
2017-11-10T03:56:59.796Z,7.30
2017-11-10T04:02:03.255Z,7.30
2017-11-10T04:07:07.614Z,7.30
2017-11-10T04:12:10.607Z,7.30
2017-11-10T04:17:16.634Z,7.30
2017-11-10T04:22:22.621Z,7.30
2017-11-10T04:27:25.977Z,7.30
2017-11-10T04:32:29.025Z,7.30
2017-11-10T04:37:34.135Z,7.30
2017-11-10T04:42:37.624Z,7.30
2017-11-10T04:47:41.965Z,7.30
2017-11-10T04:52:46.509Z,7.20
2017-11-10T04:57:50.930Z,7.20
2017-11-10T05:08:01.291Z,7.20
2017-11-10T05:13:04.834Z,7.20
2017-11-10T05:18:07.443Z,7.20
2017-11-10T05:23:10.031Z,7.20
2017-11-10T05:28:12.603Z,7.20
2017-11-10T05:33:15.160Z,7.20
2017-11-10T05:38:17.766Z,7.20
2017-11-10T05:43:20.347Z,7.20
2017-11-10T05:48:22.940Z,7.20
2017-11-10T05:53:25.514Z,7.20
2017-11-10T05:58:28.088Z,7.20
2017-11-10T06:03:31.478Z,7.10
2017-11-10T06:08:34.030Z,7.10
2017-11-10T06:13:36.596Z,7.10
2017-11-10T06:18:39.148Z,7.10
2017-11-10T06:23:41.717Z,7.20
2017-11-10T06:28:45.021Z,7.10
2017-11-10T06:39:16.552Z,7.10
2017-11-10T06:44:19.132Z,7.10
2017-11-10T06:49:22.444Z,7.10
2017-11-10T06:54:25.772Z,7.10
2017-11-10T06:59:28.387Z,7.10
2017-11-10T07:04:30.947Z,7.10
2017-11-10T07:09:33.498Z,7.10
2017-11-10T07:14:36.071Z,7.10
2017-11-10T07:19:39.390Z,7.10
2017-11-10T07:24:41.952Z,7.10
2017-11-10T07:29:44.526Z,7.10
2017-11-10T07:34:47.089Z,7.10
2017-11-10T07:39:49.647Z,7.10
2017-11-10T07:44:52.198Z,7.10
2017-11-10T07:49:54.756Z,7.10
2017-11-10T07:54:57.323Z,7.10
2017-11-10T07:59:59.890Z,7.10
2017-11-10T08:05:02.433Z,7.10
2017-11-10T08:10:05.007Z,7.20
2017-11-10T08:15:07.571Z,7.20
2017-11-10T08:20:10.132Z,7.20
2017-11-10T08:25:12.689Z,7.20
2017-11-10T08:30:15.253Z,7.30
2017-11-10T08:35:17.821Z,7.30
2017-11-10T08:40:20.385Z,7.40
2017-11-10T08:45:23.721Z,7.50
2017-11-10T08:50:26.352Z,7.50
2017-11-10T08:55:28.956Z,7.50
2017-11-10T09:00:31.521Z,7.60
2017-11-10T09:05:34.103Z,7.60
2017-11-10T09:10:37.439Z,7.70
2017-11-10T09:15:40.012Z,7.70
2017-11-10T09:20:43.339Z,7.80
2017-11-10T09:25:46.681Z,7.80
2017-11-10T09:31:01.067Z,7.80
2017-11-10T09:41:40.601Z,7.90
2017-11-10T09:46:49.508Z,8.00
2017-11-10T09:52:08.901Z,8.00
2017-11-10T09:57:16.109Z,8.00
2017-11-10T10:02:37.517Z,8.10
2017-11-10T10:07:45.564Z,8.10
2017-11-10T10:12:53.712Z,8.10
2017-11-10T10:17:58.083Z,8.10
2017-11-10T10:23:00.651Z,8.10
2017-11-10T10:28:04.647Z,8.20
2017-11-10T10:33:07.220Z,8.20
2017-11-10T10:38:09.774Z,8.20
2017-11-10T10:43:12.351Z,8.20
2017-11-10T10:48:14.906Z,8.20
2017-11-10T10:53:17.471Z,8.20
2017-11-10T10:58:20.028Z,8.20
2017-11-10T11:03:22.684Z,8.20
2017-11-10T11:08:26.017Z,8.20
2017-11-10T11:13:28.564Z,8.20
2017-11-10T11:18:31.163Z,8.20
2017-11-10T11:23:33.736Z,8.20
2017-11-10T11:28:36.324Z,8.20
2017-11-10T11:33:38.908Z,8.20
2017-11-10T11:38:42.258Z,8.20
2017-11-10T11:43:44.889Z,8.20
2017-11-10T11:48:47.456Z,8.20
2017-11-10T11:53:50.042Z,8.30
2017-11-10T11:58:52.604Z,8.20
2017-11-10T12:03:55.194Z,8.20
2017-11-10T12:08:57.758Z,8.20
2017-11-10T12:14:00.325Z,8.20
2017-11-10T12:19:03.691Z,8.20
2017-11-10T12:24:06.266Z,8.20
2017-11-10T12:29:08.831Z,8.20
2017-11-10T12:34:11.394Z,8.20
2017-11-10T12:39:13.980Z,8.20
2017-11-10T12:44:16.540Z,8.20
2017-11-10T12:49:19.106Z,8.20
2017-11-10T12:54:22.483Z,8.10
2017-11-10T12:59:25.365Z,8.10
2017-11-10T13:04:27.912Z,8.10
2017-11-10T13:09:30.703Z,8.10
2017-11-10T13:14:33.266Z,8.00
2017-11-10T13:19:35.842Z,8.00
2017-11-10T13:24:38.413Z,8.00
2017-11-10T13:29:40.965Z,7.90
2017-11-10T13:34:44.298Z,7.80
2017-11-10T13:39:46.861Z,7.80
2017-11-10T13:44:49.437Z,7.80
2017-11-10T13:49:52.009Z,7.80
2017-11-10T13:54:54.581Z,7.80
2017-11-10T13:59:57.157Z,7.80
2017-11-10T14:04:59.723Z,7.70
2017-11-10T14:10:02.292Z,7.70
2017-11-10T14:15:05.626Z,7.60
2017-11-10T14:20:08.184Z,7.60
2017-11-10T14:25:10.769Z,7.60
2017-11-10T14:30:13.315Z,7.60
2017-11-10T14:35:15.880Z,7.50
2017-11-10T14:40:18.452Z,7.50
2017-11-10T14:45:21.016Z,7.40
2017-11-10T14:50:24.347Z,7.30
2017-11-10T14:55:26.920Z,7.30
2017-11-10T15:00:30.249Z,7.20
2017-11-10T15:05:32.858Z,7.20
2017-11-10T15:10:35.567Z,7.10
2017-11-10T15:15:38.163Z,7.10
2017-11-10T15:20:40.724Z,7.10
2017-11-10T15:25:43.286Z,7.10
2017-11-10T15:30:45.847Z,7.10
2017-11-10T15:35:48.414Z,7.10
2017-11-10T15:40:51.223Z,7.00
2017-11-10T15:45:54.570Z,7.00
2017-11-10T15:50:57.899Z,7.00
2017-11-10T15:56:00.475Z,7.00
2017-11-10T16:01:03.026Z,7.00
2017-11-10T16:06:05.593Z,7.00
2017-11-10T16:11:08.171Z,7.00
2017-11-10T16:16:10.725Z,7.00
2017-11-10T16:26:17.611Z,6.90
2017-11-10T16:31:20.188Z,6.90
2017-11-10T16:36:22.772Z,6.90
2017-11-10T16:41:25.340Z,6.80
2017-11-10T16:46:27.936Z,6.80
2017-11-10T16:51:30.511Z,6.80
2017-11-10T16:56:33.071Z,6.80
2017-11-10T17:01:35.637Z,6.80
2017-11-10T17:06:38.216Z,6.80
2017-11-10T17:11:41.547Z,6.80
2017-11-10T17:16:44.106Z,6.80
2017-11-10T17:21:46.674Z,6.80
2017-11-10T17:26:49.251Z,6.80
2017-11-10T17:31:51.813Z,6.80
2017-11-10T17:36:54.378Z,6.80
2017-11-10T17:41:56.945Z,6.80
2017-11-10T17:47:01.064Z,6.80
2017-11-10T17:52:03.632Z,6.70
2017-11-10T17:57:06.202Z,6.80
2017-11-10T18:02:08.834Z,6.80
2017-11-10T18:07:11.423Z,6.80
2017-11-10T18:12:14.016Z,6.80
2017-11-10T18:17:16.609Z,6.80
2017-11-10T18:22:19.163Z,6.80
2017-11-10T18:27:21.700Z,6.80
2017-11-10T18:32:24.292Z,6.80
2017-11-10T18:37:27.293Z,6.80
2017-11-10T18:42:29.862Z,6.70
2017-11-10T18:47:32.526Z,6.80
2017-11-10T18:52:35.163Z,6.80
2017-11-10T18:57:37.781Z,6.80
2017-11-10T19:02:40.352Z,6.80
2017-11-10T19:07:43.800Z,6.70
2017-11-10T19:12:46.369Z,6.70
2017-11-10T19:22:55.985Z,6.70
2017-11-10T19:27:58.573Z,6.70
2017-11-10T19:33:01.134Z,6.70
2017-11-10T19:38:03.738Z,6.70
2017-11-10T19:43:06.337Z,6.70
2017-11-10T19:48:08.886Z,6.70
2017-11-10T19:53:11.497Z,6.70
2017-11-10T19:58:14.140Z,6.70
2017-11-10T20:03:16.728Z,6.70
2017-11-10T20:08:19.303Z,6.70
2017-11-10T20:13:21.899Z,6.70
2017-11-10T20:18:24.565Z,6.70
2017-11-10T20:23:27.630Z,6.70
2017-11-10T20:28:30.989Z,6.70
2017-11-10T20:33:33.620Z,6.70
2017-11-10T20:38:36.178Z,6.70
2017-11-10T20:43:38.735Z,6.70
2017-11-10T20:48:41.300Z,6.70
2017-11-10T20:53:44.008Z,6.70
2017-11-10T20:58:46.591Z,6.70
2017-11-10T21:03:49.178Z,6.70
2017-11-10T21:08:51.784Z,6.70
2017-11-10T21:13:54.405Z,6.70
2017-11-10T21:18:57.003Z,6.70
2017-11-10T21:23:59.559Z,6.70
2017-11-10T21:29:02.117Z,6.70
2017-11-10T21:34:04.687Z,6.70
2017-11-10T21:39:07.253Z,6.80
2017-11-10T21:44:09.818Z,6.80
2017-11-10T21:49:12.390Z,6.80
2017-11-10T21:54:14.932Z,6.80
2017-11-10T21:59:17.517Z,6.80
2017-11-10T22:04:20.072Z,6.80
2017-11-10T22:09:23.357Z,6.80
2017-11-10T22:14:25.933Z,6.80
2017-11-10T22:19:28.491Z,6.80
2017-11-10T22:24:31.021Z,6.80
2017-11-10T22:29:34.007Z,6.80
2017-11-10T22:34:36.566Z,6.80
2017-11-10T22:39:39.148Z,6.80
2017-11-10T22:44:41.745Z,6.80
2017-11-10T22:49:44.303Z,6.80
2017-11-10T22:54:46.889Z,6.80
2017-11-10T22:59:49.682Z,6.80
2017-11-10T23:04:52.302Z,6.80
2017-11-10T23:09:54.859Z,6.80
2017-11-10T23:14:57.417Z,6.80
2017-11-10T23:20:00.002Z,6.80
2017-11-10T23:25:02.579Z,6.80
2017-11-10T23:30:05.142Z,6.80
2017-11-10T23:35:07.700Z,6.80
2017-11-10T23:40:10.237Z,6.80
2017-11-10T23:45:12.804Z,6.80
2017-11-10T23:50:15.409Z,6.80
2017-11-10T23:55:17.986Z,6.70
